Terminal Aerodrome Forecast
Issued by NWS

Home | Current Version | Previous Version | Text Only | Print | Product List | Glossary On
Versions: 1 2 3 4 5 6 7 8 9 10 11 12
445
FTUS44 KEPZ 271151
TAFLRU
TAF
KLRU 271151Z 2712/2812 25007KT P6SM SKC
     FM271900 24016G27KT P6SM FEW180
     FM280200 25014KT P6SM SCT130=

USA.gov is the U.S. government's official web portal to all federal, state and local government web resources and services.